sensor_id;sensor_type;location;lat;lon;timestamp;P1;durP1;ratioP1;P2;durP2;ratioP2
1054;SDS011;516;51.482;7.120;2023-09-19T00:04:23;9.80;;;4.17;;
1054;SDS011;516;51.482;7.120;2023-09-19T00:09:57;6.03;;;2.80;;
1054;SDS011;516;51.482;7.120;2023-09-19T00:15:26;10.03;;;3.30;;
1054;SDS011;516;51.482;7.120;2023-09-19T00:20:59;9.90;;;3.87;;
1054;SDS011;516;51.482;7.120;2023-09-19T00:26:31;3.80;;;2.80;;
1054;SDS011;516;51.482;7.120;2023-09-19T00:32:00;7.73;;;2.53;;
1054;SDS011;516;51.482;7.120;2023-09-19T00:37:34;4.80;;;2.80;;
1054;SDS011;516;51.482;7.120;2023-09-19T00:43:04;4.73;;;2.57;;
1054;SDS011;516;51.482;7.120;2023-09-19T00:48:38;2.80;;;2.23;;
1054;SDS011;516;51.482;7.120;2023-09-19T01:00:17;8.53;;;3.37;;
1054;SDS011;516;51.482;7.120;2023-09-19T01:05:48;5.33;;;2.20;;
1054;SDS011;516;51.482;7.120;2023-09-19T01:11:25;3.53;;;2.13;;
1054;SDS011;516;51.482;7.120;2023-09-19T01:17:03;7.20;;;2.67;;
1054;SDS011;516;51.482;7.120;2023-09-19T01:33:55;5.03;;;2.57;;
1054;SDS011;516;51.482;7.120;2023-09-19T01:48:35;4.50;;;2.43;;
1054;SDS011;516;51.482;7.120;2023-09-19T02:03:33;9.40;;;3.40;;
1054;SDS011;516;51.482;7.120;2023-09-19T02:09:04;6.87;;;3.93;;
1054;SDS011;516;51.482;7.120;2023-09-19T02:14:34;5.77;;;3.10;;
1054;SDS011;516;51.482;7.120;2023-09-19T02:20:04;14.50;;;3.10;;
1054;SDS011;516;51.482;7.120;2023-09-19T02:25:20;10.50;;;3.60;;
1054;SDS011;516;51.482;7.120;2023-09-19T02:30:49;16.00;;;3.23;;
1054;SDS011;516;51.482;7.120;2023-09-19T02:36:19;5.10;;;2.13;;
1054;SDS011;516;51.482;7.120;2023-09-19T02:41:49;7.87;;;2.67;;
1054;SDS011;516;51.482;7.120;2023-09-19T02:47:18;9.73;;;3.23;;
1054;SDS011;516;51.482;7.120;2023-09-19T02:52:48;5.47;;;2.57;;
1054;SDS011;516;51.482;7.120;2023-09-19T02:58:18;7.47;;;3.87;;
1054;SDS011;516;51.482;7.120;2023-09-19T03:03:48;8.40;;;3.50;;
1054;SDS011;516;51.482;7.120;2023-09-19T03:09:18;4.90;;;3.10;;
1054;SDS011;516;51.482;7.120;2023-09-19T03:14:48;9.90;;;2.83;;
1054;SDS011;516;51.482;7.120;2023-09-19T03:20:19;6.40;;;3.53;;
1054;SDS011;516;51.482;7.120;2023-09-19T03:25:33;17.23;;;2.77;;
1054;SDS011;516;51.482;7.120;2023-09-19T03:31:04;10.10;;;3.83;;
1054;SDS011;516;51.482;7.120;2023-09-19T03:36:34;7.47;;;4.50;;
1054;SDS011;516;51.482;7.120;2023-09-19T03:42:04;6.43;;;3.27;;
1054;SDS011;516;51.482;7.120;2023-09-19T03:47:33;10.27;;;3.17;;
1054;SDS011;516;51.482;7.120;2023-09-19T03:53:03;9.40;;;2.97;;
1054;SDS011;516;51.482;7.120;2023-09-19T03:58:33;6.87;;;3.60;;
1054;SDS011;516;51.482;7.120;2023-09-19T04:03:48;8.30;;;4.10;;
1054;SDS011;516;51.482;7.120;2023-09-19T04:09:20;6.23;;;2.83;;
1054;SDS011;516;51.482;7.120;2023-09-19T04:14:50;5.17;;;3.23;;
1054;SDS011;516;51.482;7.120;2023-09-19T04:20:20;12.60;;;5.73;;
1054;SDS011;516;51.482;7.120;2023-09-19T04:25:51;6.80;;;3.60;;
1054;SDS011;516;51.482;7.120;2023-09-19T04:31:21;8.03;;;4.27;;
1054;SDS011;516;51.482;7.120;2023-09-19T04:36:51;10.87;;;3.60;;
1054;SDS011;516;51.482;7.120;2023-09-19T04:42:21;6.33;;;3.10;;
1054;SDS011;516;51.482;7.120;2023-09-19T04:47:35;6.37;;;3.00;;
1054;SDS011;516;51.482;7.120;2023-09-19T04:53:07;7.33;;;3.80;;
1054;SDS011;516;51.482;7.120;2023-09-19T04:58:37;11.90;;;3.90;;
1054;SDS011;516;51.482;7.120;2023-09-19T05:04:07;6.90;;;3.87;;
1054;SDS011;516;51.482;7.120;2023-09-19T05:09:37;4.20;;;2.60;;
1054;SDS011;516;51.482;7.120;2023-09-19T05:15:07;5.77;;;3.43;;
1054;SDS011;516;51.482;7.120;2023-09-19T05:20:37;6.53;;;3.10;;
1054;SDS011;516;51.482;7.120;2023-09-19T05:26:08;4.40;;;3.47;;
1054;SDS011;516;51.482;7.120;2023-09-19T05:31:39;6.33;;;3.47;;
1054;SDS011;516;51.482;7.120;2023-09-19T05:37:09;9.93;;;3.70;;
1054;SDS011;516;51.482;7.120;2023-09-19T05:42:39;7.00;;;3.80;;
1054;SDS011;516;51.482;7.120;2023-09-19T05:48:10;9.13;;;3.67;;
1054;SDS011;516;51.482;7.120;2023-09-19T05:53:41;8.27;;;3.83;;
1054;SDS011;516;51.482;7.120;2023-09-19T06:08:23;11.73;;;3.30;;
1054;SDS011;516;51.482;7.120;2023-09-19T06:13:52;11.03;;;5.90;;
1054;SDS011;516;51.482;7.120;2023-09-19T06:19:22;9.57;;;4.13;;
1054;SDS011;516;51.482;7.120;2023-09-19T06:24:54;12.23;;;3.80;;
1054;SDS011;516;51.482;7.120;2023-09-19T06:30:24;7.83;;;4.17;;
1054;SDS011;516;51.482;7.120;2023-09-19T06:35:55;11.07;;;4.10;;
1054;SDS011;516;51.482;7.120;2023-09-19T06:41:28;9.20;;;3.50;;
1054;SDS011;516;51.482;7.120;2023-09-19T06:46:58;8.90;;;4.50;;
1054;SDS011;516;51.482;7.120;2023-09-19T06:52:28;8.70;;;5.30;;
1054;SDS011;516;51.482;7.120;2023-09-19T06:57:57;13.30;;;4.80;;
1054;SDS011;516;51.482;7.120;2023-09-19T07:03:27;7.50;;;4.10;;
1054;SDS011;516;51.482;7.120;2023-09-19T07:08:57;8.77;;;4.60;;
1054;SDS011;516;51.482;7.120;2023-09-19T07:14:27;7.77;;;4.77;;
1054;SDS011;516;51.482;7.120;2023-09-19T07:19:59;7.10;;;4.00;;
1054;SDS011;516;51.482;7.120;2023-09-19T07:25:28;15.53;;;5.43;;
1054;SDS011;516;51.482;7.120;2023-09-19T07:31:01;11.50;;;4.30;;
1054;SDS011;516;51.482;7.120;2023-09-19T07:36:31;10.03;;;5.27;;
1054;SDS011;516;51.482;7.120;2023-09-19T07:42:01;19.37;;;5.40;;
1054;SDS011;516;51.482;7.120;2023-09-19T07:47:31;8.13;;;4.67;;
1054;SDS011;516;51.482;7.120;2023-09-19T07:53:01;7.00;;;5.53;;
1054;SDS011;516;51.482;7.120;2023-09-19T08:04:44;8.63;;;5.20;;
1054;SDS011;516;51.482;7.120;2023-09-19T08:10:17;6.10;;;4.80;;
1054;SDS011;516;51.482;7.120;2023-09-19T08:15:48;7.60;;;5.80;;
1054;SDS011;516;51.482;7.120;2023-09-19T08:21:17;14.40;;;5.30;;
1054;SDS011;516;51.482;7.120;2023-09-19T08:26:47;10.23;;;5.10;;
1054;SDS011;516;51.482;7.120;2023-09-19T08:32:17;7.33;;;4.87;;
1054;SDS011;516;51.482;7.120;2023-09-19T08:37:54;10.80;;;6.37;;
1054;SDS011;516;51.482;7.120;2023-09-19T08:43:25;9.23;;;5.67;;
1054;SDS011;516;51.482;7.120;2023-09-19T08:48:58;7.00;;;5.30;;
1054;SDS011;516;51.482;7.120;2023-09-19T08:54:33;8.03;;;5.13;;
1054;SDS011;516;51.482;7.120;2023-09-19T09:08:53;8.03;;;6.17;;
1054;SDS011;516;51.482;7.120;2023-09-19T09:14:23;12.53;;;6.00;;
1054;SDS011;516;51.482;7.120;2023-09-19T09:19:53;8.83;;;6.47;;
1054;SDS011;516;51.482;7.120;2023-09-19T09:25:23;10.03;;;7.47;;
1054;SDS011;516;51.482;7.120;2023-09-19T09:31:31;9.13;;;7.30;;
1054;SDS011;516;51.482;7.120;2023-09-19T09:37:01;12.37;;;7.30;;
1054;SDS011;516;51.482;7.120;2023-09-19T09:42:33;8.20;;;7.10;;
1054;SDS011;516;51.482;7.120;2023-09-19T09:48:25;7.07;;;6.37;;
1054;SDS011;516;51.482;7.120;2023-09-19T09:54:15;7.27;;;6.77;;
1054;SDS011;516;51.482;7.120;2023-09-19T10:06:02;16.20;;;7.37;;
1054;SDS011;516;51.482;7.120;2023-09-19T10:11:42;7.13;;;6.73;;
1054;SDS011;516;51.482;7.120;2023-09-19T10:17:12;14.37;;;8.13;;
1054;SDS011;516;51.482;7.120;2023-09-19T10:22:44;10.40;;;7.70;;
1054;SDS011;516;51.482;7.120;2023-09-19T10:28:25;8.47;;;7.87;;
1054;SDS011;516;51.482;7.120;2023-09-19T10:33:57;9.67;;;8.87;;
1054;SDS011;516;51.482;7.120;2023-09-19T10:39:27;9.80;;;8.90;;
1054;SDS011;516;51.482;7.120;2023-09-19T10:45:00;9.47;;;8.77;;
1054;SDS011;516;51.482;7.120;2023-09-19T10:50:40;22.40;;;9.40;;
1054;SDS011;516;51.482;7.120;2023-09-19T10:56:17;10.33;;;9.40;;
1054;SDS011;516;51.482;7.120;2023-09-19T11:02:15;10.67;;;9.77;;
1054;SDS011;516;51.482;7.120;2023-09-19T11:34:28;10.00;;;9.23;;
1054;SDS011;516;51.482;7.120;2023-09-19T11:40:07;8.80;;;8.20;;
1054;SDS011;516;51.482;7.120;2023-09-19T11:51:29;12.27;;;10.20;;
1054;SDS011;516;51.482;7.120;2023-09-19T11:57:09;11.20;;;9.63;;
1054;SDS011;516;51.482;7.120;2023-09-19T12:11:46;9.60;;;8.80;;
1054;SDS011;516;51.482;7.120;2023-09-19T12:17:16;10.83;;;10.13;;
1054;SDS011;516;51.482;7.120;2023-09-19T12:22:47;13.47;;;11.07;;
1054;SDS011;516;51.482;7.120;2023-09-19T12:28:18;11.40;;;10.57;;
1054;SDS011;516;51.482;7.120;2023-09-19T12:33:53;14.50;;;10.77;;
1054;SDS011;516;51.482;7.120;2023-09-19T12:39:24;11.23;;;10.07;;
1054;SDS011;516;51.482;7.120;2023-09-19T12:44:55;10.90;;;10.00;;
1054;SDS011;516;51.482;7.120;2023-09-19T12:50:25;10.93;;;10.23;;
1054;SDS011;516;51.482;7.120;2023-09-19T12:55:58;10.87;;;10.17;;
1054;SDS011;516;51.482;7.120;2023-09-19T13:01:28;11.13;;;10.33;;
1054;SDS011;516;51.482;7.120;2023-09-19T13:06:58;11.87;;;11.07;;
1054;SDS011;516;51.482;7.120;2023-09-19T13:12:37;11.13;;;10.30;;
1054;SDS011;516;51.482;7.120;2023-09-19T13:18:11;11.40;;;10.57;;
1054;SDS011;516;51.482;7.120;2023-09-19T13:23:42;11.90;;;11.07;;
1054;SDS011;516;51.482;7.120;2023-09-19T13:29:12;11.17;;;10.27;;
1054;SDS011;516;51.482;7.120;2023-09-19T13:34:46;9.70;;;9.10;;
1054;SDS011;516;51.482;7.120;2023-09-19T13:40:15;10.20;;;9.50;;
1054;SDS011;516;51.482;7.120;2023-09-19T13:45:45;10.23;;;9.53;;
1054;SDS011;516;51.482;7.120;2023-09-19T13:51:15;10.60;;;9.70;;
1054;SDS011;516;51.482;7.120;2023-09-19T13:56:45;11.17;;;10.43;;
1054;SDS011;516;51.482;7.120;2023-09-19T14:08:22;10.57;;;9.73;;
1054;SDS011;516;51.482;7.120;2023-09-19T14:13:53;10.97;;;10.17;;
1054;SDS011;516;51.482;7.120;2023-09-19T14:19:22;10.40;;;9.90;;
1054;SDS011;516;51.482;7.120;2023-09-19T14:24:52;10.73;;;9.93;;
1054;SDS011;516;51.482;7.120;2023-09-19T14:30:22;11.47;;;10.60;;
1054;SDS011;516;51.482;7.120;2023-09-19T14:35:52;11.70;;;9.70;;
1054;SDS011;516;51.482;7.120;2023-09-19T14:41:22;10.80;;;10.10;;
1054;SDS011;516;51.482;7.120;2023-09-19T14:46:54;10.60;;;10.00;;
1054;SDS011;516;51.482;7.120;2023-09-19T14:52:24;10.27;;;9.50;;
1054;SDS011;516;51.482;7.120;2023-09-19T14:57:57;10.43;;;9.90;;
1054;SDS011;516;51.482;7.120;2023-09-19T15:12:36;10.00;;;9.23;;
1054;SDS011;516;51.482;7.120;2023-09-19T15:18:06;9.33;;;8.73;;
1054;SDS011;516;51.482;7.120;2023-09-19T15:23:36;9.17;;;8.77;;
1054;SDS011;516;51.482;7.120;2023-09-19T15:29:06;9.80;;;9.10;;
1054;SDS011;516;51.482;7.120;2023-09-19T15:34:36;10.20;;;9.30;;
1054;SDS011;516;51.482;7.120;2023-09-19T15:40:06;9.90;;;9.23;;
1054;SDS011;516;51.482;7.120;2023-09-19T15:45:38;9.90;;;9.30;;
1054;SDS011;516;51.482;7.120;2023-09-19T15:51:08;9.50;;;9.00;;
1054;SDS011;516;51.482;7.120;2023-09-19T15:56:43;10.03;;;9.53;;
1054;SDS011;516;51.482;7.120;2023-09-19T16:02:13;9.93;;;9.10;;
1054;SDS011;516;51.482;7.120;2023-09-19T16:07:43;9.57;;;9.07;;
1054;SDS011;516;51.482;7.120;2023-09-19T16:13:13;9.23;;;8.80;;
1054;SDS011;516;51.482;7.120;2023-09-19T16:18:47;9.50;;;9.00;;
1054;SDS011;516;51.482;7.120;2023-09-19T16:24:16;9.07;;;8.53;;
1054;SDS011;516;51.482;7.120;2023-09-19T16:29:47;8.77;;;8.27;;
1054;SDS011;516;51.482;7.120;2023-09-19T16:35:20;9.50;;;9.00;;
1054;SDS011;516;51.482;7.120;2023-09-19T16:40:56;9.90;;;9.23;;
1054;SDS011;516;51.482;7.120;2023-09-19T16:46:26;9.90;;;9.40;;
1054;SDS011;516;51.482;7.120;2023-09-19T16:51:56;10.40;;;9.67;;
1054;SDS011;516;51.482;7.120;2023-09-19T16:57:26;10.30;;;9.70;;
1054;SDS011;516;51.482;7.120;2023-09-19T17:09:03;10.53;;;10.03;;
1054;SDS011;516;51.482;7.120;2023-09-19T17:14:33;10.03;;;9.53;;
1054;SDS011;516;51.482;7.120;2023-09-19T17:20:05;9.57;;;9.07;;
1054;SDS011;516;51.482;7.120;2023-09-19T17:25:35;9.47;;;8.97;;
1054;SDS011;516;51.482;7.120;2023-09-19T17:31:25;9.63;;;9.20;;
1054;SDS011;516;51.482;7.120;2023-09-19T17:37:13;11.20;;;10.60;;
1054;SDS011;516;51.482;7.120;2023-09-19T17:42:43;9.77;;;9.27;;
1054;SDS011;516;51.482;7.120;2023-09-19T17:48:13;11.20;;;10.50;;
1054;SDS011;516;51.482;7.120;2023-09-19T17:53:43;9.77;;;9.07;;
1054;SDS011;516;51.482;7.120;2023-09-19T17:59:13;9.63;;;8.80;;
1054;SDS011;516;51.482;7.120;2023-09-19T18:04:42;10.17;;;9.57;;
1054;SDS011;516;51.482;7.120;2023-09-19T18:10:12;9.77;;;9.17;;
1054;SDS011;516;51.482;7.120;2023-09-19T18:15:42;11.00;;;10.40;;
1054;SDS011;516;51.482;7.120;2023-09-19T18:21:12;10.87;;;10.30;;
1054;SDS011;516;51.482;7.120;2023-09-19T18:26:41;9.90;;;9.20;;
1054;SDS011;516;51.482;7.120;2023-09-19T18:32:12;10.17;;;9.40;;
1054;SDS011;516;51.482;7.120;2023-09-19T18:37:41;10.10;;;9.10;;
1054;SDS011;516;51.482;7.120;2023-09-19T18:43:11;9.03;;;8.63;;
1054;SDS011;516;51.482;7.120;2023-09-19T18:48:42;9.40;;;8.90;;
1054;SDS011;516;51.482;7.120;2023-09-19T18:54:13;9.47;;;8.87;;
1054;SDS011;516;51.482;7.120;2023-09-19T18:59:44;8.97;;;8.40;;
1054;SDS011;516;51.482;7.120;2023-09-19T19:05:03;8.67;;;8.17;;
1054;SDS011;516;51.482;7.120;2023-09-19T19:10:38;9.03;;;8.63;;
1054;SDS011;516;51.482;7.120;2023-09-19T19:16:07;9.20;;;8.33;;
1054;SDS011;516;51.482;7.120;2023-09-19T19:21:39;8.77;;;8.27;;
1054;SDS011;516;51.482;7.120;2023-09-19T19:27:10;9.77;;;8.93;;
1054;SDS011;516;51.482;7.120;2023-09-19T19:32:40;9.40;;;8.80;;
1054;SDS011;516;51.482;7.120;2023-09-19T19:38:10;10.00;;;9.40;;
1054;SDS011;516;51.482;7.120;2023-09-19T19:43:40;9.57;;;9.07;;
1054;SDS011;516;51.482;7.120;2023-09-19T19:49:13;10.07;;;9.27;;
1054;SDS011;516;51.482;7.120;2023-09-19T19:54:44;12.47;;;11.57;;
1054;SDS011;516;51.482;7.120;2023-09-19T20:00:14;9.00;;;8.50;;
1054;SDS011;516;51.482;7.120;2023-09-19T20:14:56;8.67;;;8.20;;
1054;SDS011;516;51.482;7.120;2023-09-19T20:20:25;9.80;;;9.10;;
1054;SDS011;516;51.482;7.120;2023-09-19T20:25:57;9.50;;;8.73;;
1054;SDS011;516;51.482;7.120;2023-09-19T20:31:34;9.77;;;9.17;;
1054;SDS011;516;51.482;7.120;2023-09-19T20:37:05;9.77;;;9.07;;
1054;SDS011;516;51.482;7.120;2023-09-19T20:42:38;9.77;;;9.13;;
1054;SDS011;516;51.482;7.120;2023-09-19T20:48:08;10.17;;;9.60;;
1054;SDS011;516;51.482;7.120;2023-09-19T20:53:40;10.33;;;9.63;;
1054;SDS011;516;51.482;7.120;2023-09-19T20:59:09;9.80;;;9.20;;
1054;SDS011;516;51.482;7.120;2023-09-19T21:04:39;9.43;;;8.90;;
1054;SDS011;516;51.482;7.120;2023-09-19T21:10:09;10.00;;;9.13;;
1054;SDS011;516;51.482;7.120;2023-09-19T21:15:42;10.13;;;9.23;;
1054;SDS011;516;51.482;7.120;2023-09-19T21:21:11;9.10;;;8.50;;
1054;SDS011;516;51.482;7.120;2023-09-19T21:26:41;9.87;;;9.17;;
1054;SDS011;516;51.482;7.120;2023-09-19T21:32:11;10.83;;;8.97;;
1054;SDS011;516;51.482;7.120;2023-09-19T21:37:41;9.07;;;8.67;;
1054;SDS011;516;51.482;7.120;2023-09-19T21:43:11;10.47;;;9.47;;
1054;SDS011;516;51.482;7.120;2023-09-19T21:48:41;9.17;;;8.57;;
1054;SDS011;516;51.482;7.120;2023-09-19T21:54:10;9.70;;;9.20;;
1054;SDS011;516;51.482;7.120;2023-09-19T21:59:40;9.33;;;8.80;;
1054;SDS011;516;51.482;7.120;2023-09-19T22:04:57;9.70;;;8.80;;
1054;SDS011;516;51.482;7.120;2023-09-19T22:10:27;8.93;;;8.40;;
1054;SDS011;516;51.482;7.120;2023-09-19T22:15:57;9.70;;;9.10;;
1054;SDS011;516;51.482;7.120;2023-09-19T22:21:27;9.40;;;8.80;;
1054;SDS011;516;51.482;7.120;2023-09-19T22:27:16;11.37;;;9.60;;
1054;SDS011;516;51.482;7.120;2023-09-19T22:32:48;9.90;;;8.73;;
1054;SDS011;516;51.482;7.120;2023-09-19T22:38:19;11.67;;;9.83;;
1054;SDS011;516;51.482;7.120;2023-09-19T22:43:49;9.33;;;8.63;;
1054;SDS011;516;51.482;7.120;2023-09-19T22:49:19;9.60;;;8.90;;
1054;SDS011;516;51.482;7.120;2023-09-19T22:54:49;10.00;;;9.30;;
1054;SDS011;516;51.482;7.120;2023-09-19T23:00:19;9.30;;;8.57;;
1054;SDS011;516;51.482;7.120;2023-09-19T23:14:55;9.77;;;8.97;;
1054;SDS011;516;51.482;7.120;2023-09-19T23:20:24;9.13;;;8.53;;
1054;SDS011;516;51.482;7.120;2023-09-19T23:25:54;9.50;;;8.90;;
1054;SDS011;516;51.482;7.120;2023-09-19T23:31:23;9.60;;;8.90;;
1054;SDS011;516;51.482;7.120;2023-09-19T23:36:53;9.93;;;8.93;;
1054;SDS011;516;51.482;7.120;2023-09-19T23:42:24;9.77;;;8.97;;
1054;SDS011;516;51.482;7.120;2023-09-19T23:47:56;13.00;;;9.90;;
1054;SDS011;516;51.482;7.120;2023-09-19T23:53:26;9.70;;;9.00;;
1054;SDS011;516;51.482;7.120;2023-09-19T23:58:57;9.27;;;8.73;;
